Time;durP1;ratioP1;P1;durP2;ratioP2;P2;SDS_P1;SDS_P2;PMS_P1;PMS_P2;Temp;Humidity;BMP_temperature;BMP_pressure;BME280_temperature;BME280_humidity;BME280_pressure;Samples;Min_cycle;Max_cycle;Signal;HPM_P1;HPM_P2
2022/07/10 00:01:55;;;;;;;4.57;0.67;;;;;;;13.30;79.38;101182.41;5073427;28;20185;-72
2022/07/10 00:04:20;;;;;;;0.00;0.00;;;;;;;13.29;79.54;101177.22;5073471;28;20206;-74
2022/07/10 00:06:46;;;;;;;0.20;0.20;;;;;;;13.23;79.70;101171.06;5073286;28;20175;-72
2022/07/10 00:09:13;;;;;;;0.00;0.00;;;;;;;13.22;79.84;101172.19;5073093;28;20554;-74
2022/07/10 00:11:39;;;;;;;8.40;0.63;;;;;;;13.22;79.89;101171.38;5073579;28;20178;-75
2022/07/10 00:14:04;;;;;;;0.00;0.00;;;;;;;13.22;80.71;101174.94;5073482;28;20186;-73
2022/07/10 00:16:30;;;;;;;0.30;0.30;;;;;;;13.21;80.70;101180.75;5073109;28;20579;-75
2022/07/10 00:18:55;;;;;;;0.10;0.10;;;;;;;13.16;80.60;101175.31;5072899;28;20198;-74
2022/07/10 00:21:20;;;;;;;0.00;0.00;;;;;;;13.18;80.73;101173.94;5073208;28;20224;-72
2022/07/10 00:23:46;;;;;;;11.90;1.80;;;;;;;13.19;80.85;101169.28;5072963;28;20232;-74
2022/07/10 00:26:11;;;;;;;0.10;0.10;;;;;;;13.15;79.99;101166.28;5073027;28;20261;-74
2022/07/10 00:28:37;;;;;;;0.43;0.43;;;;;;;13.16;80.01;101164.34;5073055;28;20174;-75
2022/07/10 00:31:02;;;;;;;0.57;0.57;;;;;;;13.16;80.16;101172.59;5073026;28;20529;-72
2022/07/10 00:33:27;;;;;;;0.00;0.00;;;;;;;13.15;80.53;101168.22;5072940;28;20178;-75
2022/07/10 00:35:53;;;;;;;0.00;0.00;;;;;;;13.15;80.39;101169.03;5072942;28;20239;-74
2022/07/10 00:38:18;;;;;;;0.00;0.00;;;;;;;13.14;80.57;101159.19;5072398;28;20179;-75
2022/07/10 00:40:44;;;;;;;0.00;0.00;;;;;;;13.10;80.79;101164.47;5072851;28;20261;-75
2022/07/10 00:43:09;;;;;;;3.97;0.40;;;;;;;13.10;80.45;101166.41;5073184;28;20201;-73
2022/07/10 00:45:35;;;;;;;0.00;0.00;;;;;;;13.09;80.55;101159.31;5072704;28;20238;-75
2022/07/10 00:48:00;;;;;;;0.00;0.00;;;;;;;13.08;80.69;101160.44;5072378;28;20198;-72
2022/07/10 00:50:26;;;;;;;0.00;0.00;;;;;;;13.09;80.53;101164.78;5071279;28;20200;-75
2022/07/10 00:52:51;;;;;;;0.10;0.10;;;;;;;13.10;80.35;101161.75;5072660;28;20272;-73
2022/07/10 00:55:17;;;;;;;0.03;0.03;;;;;;;13.09;80.09;101160.13;5072486;28;20221;-75
2022/07/10 00:57:42;;;;;;;0.17;0.17;;;;;;;13.09;80.20;101160.13;5071539;28;20174;-73
2022/07/10 01:00:11;;;;;;;0.07;0.07;;;;;;;13.07;80.85;101159.63;5071919;28;20175;-76
2022/07/10 01:02:41;;;;;;;0.67;0.37;;;;;;;12.97;80.26;101148.88;5071836;28;20186;-76
2022/07/10 01:05:06;;;;;;;15.00;1.30;;;;;;;12.97;79.94;101148.06;5071437;28;20206;-74
2022/07/10 01:07:31;;;;;;;2.20;0.63;;;;;;;12.97;79.92;101150.81;5071528;28;20235;-74
2022/07/10 01:09:59;;;;;;;0.10;0.10;;;;;;;12.96;79.63;101144.50;5071332;28;20174;-73
2022/07/10 01:12:25;;;;;;;0.00;0.00;;;;;;;12.98;79.62;101135.97;5071751;28;20179;-74
2022/07/10 01:14:50;;;;;;;0.00;0.00;;;;;;;12.97;79.54;101148.88;5071684;28;20653;-74
2022/07/10 01:17:17;;;;;;;0.00;0.00;;;;;;;12.97;79.73;101140.66;5071384;28;20175;-72
2022/07/10 01:19:42;;;;;;;0.00;0.00;;;;;;;12.97;80.30;101140.66;5070937;28;20637;-75
2022/07/10 01:22:07;;;;;;;0.00;0.00;;;;;;;12.98;80.31;101142.28;5070326;28;20175;-74
2022/07/10 01:24:32;;;;;;;1.10;0.97;;;;;;;12.99;80.39;101132.91;5071357;28;20206;-73
2022/07/10 01:26:58;;;;;;;0.13;0.03;;;;;;;12.99;80.43;101137.59;5071186;28;20171;-74
2022/07/10 01:29:24;;;;;;;0.20;0.20;;;;;;;12.98;80.11;101135.97;5070967;28;20224;-74
2022/07/10 01:31:49;;;;;;;3.10;0.10;;;;;;;12.97;79.78;101132.41;5071322;28;20252;-73
2022/07/10 01:34:14;;;;;;;0.00;0.00;;;;;;;12.96;80.81;101130.81;5071214;28;20182;-74
2022/07/10 01:36:41;;;;;;;0.83;0.10;;;;;;;12.95;80.24;101131.94;5071061;28;20174;-74
2022/07/10 01:39:06;;;;;;;0.10;0.10;;;;;;;12.96;79.81;101121.75;5070840;28;20538;-74
2022/07/10 01:41:32;;;;;;;0.00;0.00;;;;;;;12.93;79.88;101123.19;5071477;28;20261;-75
2022/07/10 01:43:57;;;;;;;0.00;0.00;;;;;;;12.91;79.65;101119.16;5071003;28;20293;-75
2022/07/10 01:46:24;;;;;;;0.10;0.10;;;;;;;12.90;80.01;101125.75;5066070;28;20190;-75
2022/07/10 01:48:49;;;;;;;0.00;0.00;;;;;;;12.91;80.36;101108.19;5070612;28;20210;-74
2022/07/10 01:51:15;;;;;;;0.00;0.00;;;;;;;12.89;80.28;101113.16;5071369;28;20217;-75
2022/07/10 01:53:40;;;;;;;0.07;0.07;;;;;;;12.90;79.98;101115.59;5070026;28;20520;-76
2022/07/10 01:56:08;;;;;;;0.10;0.10;;;;;;;12.91;79.93;101117.22;5071137;28;20261;-75
2022/07/10 01:58:34;;;;;;;0.30;0.07;;;;;;;12.92;79.84;101124.31;5070245;28;20182;-73
2022/07/10 02:01:00;;;;;;;0.67;0.67;;;;;;;12.91;79.76;101125.44;5071203;28;20228;-73
2022/07/10 02:06:10;;;;;;;0.87;0.57;;;;;;;12.90;79.82;101118.34;5071088;28;20292;-74
2022/07/10 02:08:35;;;;;;;1.60;0.30;;;;;;;12.89;79.88;101113.97;5070760;28;20170;-75
2022/07/10 02:11:00;;;;;;;0.07;0.00;;;;;;;12.89;80.42;101110.44;5071216;28;20224;-73
2022/07/10 02:13:27;;;;;;;9.37;1.67;;;;;;;12.85;80.89;101112.97;5070973;28;20171;-76
2022/07/10 02:15:53;;;;;;;0.30;0.30;;;;;;;12.87;81.20;101109.91;5070735;28;20181;-75
2022/07/10 02:18:19;;;;;;;0.10;0.10;;;;;;;12.87;81.53;101110.72;5070595;28;20635;-76
2022/07/10 02:20:44;;;;;;;0.10;0.00;;;;;;;12.86;82.01;101100.88;5070963;28;20225;-74
2022/07/10 02:23:09;;;;;;;0.00;0.00;;;;;;;12.86;82.43;101100.88;5071407;28;20189;-76
2022/07/10 02:25:35;;;;;;;0.20;0.20;;;;;;;12.87;82.82;101090.69;5070820;28;20225;-74
2022/07/10 02:28:00;;;;;;;0.00;0.00;;;;;;;12.87;82.87;101087.97;5070516;28;20171;-72
2022/07/10 02:30:25;;;;;;;0.00;0.00;;;;;;;12.88;83.31;101090.41;5070947;28;20596;-73
2022/07/10 02:32:51;;;;;;;0.00;0.00;;;;;;;12.86;82.78;101089.91;5070888;28;20663;-73
2022/07/10 02:35:16;;;;;;;0.73;0.53;;;;;;;12.86;83.21;101089.09;5070718;28;20182;-75
2022/07/10 02:37:42;;;;;;;1.70;1.60;;;;;;;12.85;83.50;101085.53;5070653;28;20178;-75
2022/07/10 02:40:08;;;;;;;0.00;0.00;;;;;;;12.84;83.98;101097.63;5070711;28;20248;-73
2022/07/10 02:42:33;;;;;;;1.90;0.43;;;;;;;12.83;84.32;101096.00;5070745;28;20206;-75
2022/07/10 02:44:58;;;;;;;0.20;0.20;;;;;;;12.81;84.12;101090.84;5070915;28;20302;-76
2022/07/10 02:47:24;;;;;;;6.03;0.60;;;;;;;12.80;84.25;101085.66;5070628;28;20580;-73
2022/07/10 02:49:49;;;;;;;0.33;0.33;;;;;;;12.76;84.54;101084.66;5068974;28;20542;-76
2022/07/10 02:52:14;;;;;;;5.00;0.30;;;;;;;12.77;84.37;101083.56;5071018;28;20174;-76
2022/07/10 02:54:40;;;;;;;0.00;0.00;;;;;;;12.79;84.29;101081.31;5070739;28;20233;-77
2022/07/10 02:57:05;;;;;;;0.20;0.20;;;;;;;12.77;84.11;101081.63;5069654;28;20600;-73
2022/07/10 02:59:30;;;;;;;5.53;1.37;;;;;;;12.78;84.20;101071.47;5070590;28;20191;-73
2022/07/10 03:01:56;;;;;;;0.20;0.20;;;;;;;12.76;84.39;101074.50;5070840;28;20179;-75
2022/07/10 03:04:21;;;;;;;0.20;0.10;;;;;;;12.76;84.24;101071.78;5070508;28;20227;-73
2022/07/10 03:06:47;;;;;;;0.83;0.30;;;;;;;12.75;84.31;101080.31;5070578;28;20179;-75
2022/07/10 03:09:12;;;;;;;0.00;0.00;;;;;;;12.75;85.03;101077.56;5070214;28;20179;-75
2022/07/10 03:11:37;;;;;;;0.17;0.17;;;;;;;12.76;85.06;101082.75;5070456;28;20186;-73
2022/07/10 03:14:03;;;;;;;0.20;0.20;;;;;;;12.74;85.88;101082.25;5070491;28;20181;-73
2022/07/10 03:16:29;;;;;;;0.00;0.00;;;;;;;12.76;85.91;101070.97;5070430;28;20174;-75
2022/07/10 03:18:54;;;;;;;0.00;0.00;;;;;;;12.73;86.84;101066.91;5070093;28;20182;-75
2022/07/10 03:21:19;;;;;;;0.20;0.10;;;;;;;12.66;87.74;101062.97;5070568;28;20709;-74
2022/07/10 03:23:45;;;;;;;0.27;0.13;;;;;;;12.59;88.51;101060.66;5070252;28;20174;-74
2022/07/10 03:26:10;;;;;;;0.00;0.00;;;;;;;12.59;89.28;101059.84;5070353;28;20713;-75
2022/07/10 03:28:35;;;;;;;0.27;0.13;;;;;;;12.58;89.73;101060.94;5073578;28;20171;-75
2022/07/10 03:31:02;;;;;;;0.60;0.53;;;;;;;12.56;90.34;101058.53;5074072;28;20183;-72
2022/07/10 03:33:27;;;;;;;0.00;0.00;;;;;;;12.57;90.62;101051.91;5074251;28;20228;-77
2022/07/10 03:35:53;;;;;;;1.03;0.37;;;;;;;12.56;91.14;101068.69;5074093;28;20253;-76
2022/07/10 03:38:18;;;;;;;0.00;0.00;;;;;;;12.52;91.95;101061.06;5073698;28;20174;-76
2022/07/10 03:40:47;;;;;;;0.00;0.00;;;;;;;12.54;91.84;101076.41;5074117;28;20174;-74
2022/07/10 03:43:12;;;;;;;0.00;0.00;;;;;;;12.53;92.18;101078.34;5074039;28;20247;-76
2022/07/10 03:45:38;;;;;;;0.00;0.00;;;;;;;12.54;92.30;101070.91;5073828;28;20304;-77
2022/07/10 03:48:03;;;;;;;0.03;0.03;;;;;;;12.57;92.33;101079.34;5073835;28;20178;-75
2022/07/10 03:50:29;;;;;;;0.00;0.00;;;;;;;12.59;92.63;101070.81;5073732;28;20183;-74
2022/07/10 03:52:54;;;;;;;0.00;0.00;;;;;;;12.62;92.50;101076.50;5072451;28;20186;-76
2022/07/10 03:55:20;;;;;;;0.00;0.00;;;;;;;12.60;92.75;101075.19;5073761;28;20171;-73
2022/07/10 03:57:54;;;;;;;0.10;0.10;;;;;;;12.60;92.44;101084.22;5072726;28;20178;-72
2022/07/10 04:00:32;;;;;;;0.40;0.30;;;;;;;12.62;92.98;101090.19;5073751;28;20170;-73
2022/07/10 04:03:05;;;;;;;0.00;0.00;;;;;;;12.61;93.19;101072.13;5073522;28;20181;-73
2022/07/10 04:05:31;;;;;;;3.20;0.27;;;;;;;12.63;92.97;101080.03;5073368;28;20229;-73
2022/07/10 04:07:57;;;;;;;0.93;0.27;;;;;;;12.63;92.54;101069.88;5073064;28;20205;-74
2022/07/10 04:10:24;;;;;;;0.20;0.20;;;;;;;12.62;92.29;101075.69;5073355;28;20743;-73
2022/07/10 04:12:49;;;;;;;0.90;0.50;;;;;;;12.65;92.10;101077.78;5073372;28;20265;-73
2022/07/10 04:15:15;;;;;;;0.00;0.00;;;;;;;12.67;92.06;101081.03;5073390;28;20249;-75
2022/07/10 04:17:41;;;;;;;0.00;0.00;;;;;;;12.73;92.18;101082.53;5073050;28;20191;-73
2022/07/10 04:20:06;;;;;;;0.53;0.33;;;;;;;12.73;91.49;101080.63;5073079;28;20175;-74
2022/07/10 04:22:32;;;;;;;0.13;0.13;;;;;;;12.71;90.87;101079.28;5073130;28;20538;-74
2022/07/10 04:24:57;;;;;;;1.90;0.20;;;;;;;12.74;91.65;101082.25;5073164;28;20352;-75
2022/07/10 04:27:22;;;;;;;3.20;0.50;;;;;;;12.75;90.90;101078.38;5072791;28;20185;-73
2022/07/10 04:29:49;;;;;;;1.43;0.63;;;;;;;12.80;91.25;101080.19;5072709;28;20179;-76
2022/07/10 04:32:15;;;;;;;0.23;0.10;;;;;;;12.82;91.19;101080.69;5073104;28;20572;-73
2022/07/10 04:34:40;;;;;;;0.00;0.00;;;;;;;12.82;91.08;101076.00;5072961;28;20213;-72
2022/07/10 04:37:09;;;;;;;0.00;0.00;;;;;;;12.82;91.45;101083.41;5072764;28;20491;-75
2022/07/10 04:39:35;;;;;;;0.00;0.00;;;;;;;12.81;90.74;101079.06;5072625;28;20270;-74
2022/07/10 04:42:01;;;;;;;0.00;0.00;;;;;;;12.82;90.83;101078.75;5072820;28;20186;-74
2022/07/10 04:44:27;;;;;;;0.00;0.00;;;;;;;12.84;90.30;101074.88;5072730;28;20202;-74
2022/07/10 04:46:52;;;;;;;0.00;0.00;;;;;;;12.84;90.00;101070.19;5071144;28;20181;-73
2022/07/10 04:49:17;;;;;;;0.07;0.07;;;;;;;12.84;90.30;101070.19;5072406;28;20209;-73
2022/07/10 04:51:43;;;;;;;1.67;0.87;;;;;;;12.83;89.49;101087.78;5072741;28;20285;-73
2022/07/10 04:54:08;;;;;;;0.00;0.00;;;;;;;12.82;89.58;101084.22;5072103;28;20178;-75
2022/07/10 04:56:33;;;;;;;6.20;0.30;;;;;;;12.85;89.26;101087.47;5072277;28;20584;-74
2022/07/10 04:58:58;;;;;;;0.23;0.17;;;;;;;12.83;88.62;101090.53;5071339;28;20194;-77
2022/07/10 05:01:24;;;;;;;0.00;0.00;;;;;;;12.85;89.24;101084.72;5073201;28;20197;-77
2022/07/10 05:03:49;;;;;;;0.10;0.10;;;;;;;12.87;89.32;101082.47;5075008;28;20200;-76
2022/07/10 05:06:15;;;;;;;0.10;0.10;;;;;;;12.89;89.00;101086.56;5071458;28;20774;-77
2022/07/10 05:08:40;;;;;;;0.10;0.10;;;;;;;12.91;88.79;101091.72;5072205;28;20228;-77
2022/07/10 05:11:05;;;;;;;0.00;0.00;;;;;;;12.94;88.64;101077.38;5072242;28;20182;-77
2022/07/10 05:13:31;;;;;;;0.00;0.00;;;;;;;12.97;88.67;101090.47;5072370;28;20183;-77
2022/07/10 05:15:56;;;;;;;0.73;0.67;;;;;;;12.94;88.34;101080.94;5072224;28;20187;-78
2022/07/10 05:18:21;;;;;;;0.00;0.00;;;;;;;12.95;88.24;101085.28;5071829;28;20263;-76
2022/07/10 05:20:49;;;;;;;0.10;0.10;;;;;;;12.95;87.67;101087.22;5071994;28;20210;-77
2022/07/10 05:23:15;;;;;;;0.60;0.60;;;;;;;12.94;87.43;101102.06;5071970;28;20178;-77
2022/07/10 05:25:41;;;;;;;0.30;0.30;;;;;;;12.94;87.46;101104.81;5071856;28;20233;-77
2022/07/10 05:28:06;;;;;;;0.00;0.00;;;;;;;12.96;86.70;101110.78;5070115;28;20673;-77
2022/07/10 05:30:32;;;;;;;0.03;0.03;;;;;;;13.04;87.69;101112.81;5071755;28;20175;-76
2022/07/10 05:32:57;;;;;;;0.40;0.30;;;;;;;13.04;86.62;101108.13;5071859;28;20181;-77
2022/07/10 05:35:23;;;;;;;0.00;0.00;;;;;;;13.08;86.38;101103.63;5071726;28;20202;-77
2022/07/10 05:37:48;;;;;;;0.40;0.30;;;;;;;13.14;86.52;101101.56;5071970;28;20192;-78
2022/07/10 05:40:14;;;;;;;0.20;0.20;;;;;;;13.19;86.45;101095.19;5071413;28;20542;-79
2022/07/10 05:42:39;;;;;;;1.80;0.30;;;;;;;13.23;85.98;101105.22;5071543;28;20174;-74
2022/07/10 05:45:06;;;;;;;0.53;0.53;;;;;;;13.26;85.64;101095.53;5070109;28;20206;-74
2022/07/10 05:47:32;;;;;;;1.50;1.40;;;;;;;13.33;85.64;101094.00;5071298;28;20179;-79
2022/07/10 05:49:58;;;;;;;0.30;0.30;;;;;;;13.34;84.84;101092.84;5070486;28;20274;-77
2022/07/10 05:52:23;;;;;;;0.00;0.00;;;;;;;13.32;84.79;101099.78;5071435;28;20598;-78
2022/07/10 05:54:49;;;;;;;0.00;0.00;;;;;;;13.33;84.38;101099.47;5071259;28;20232;-79
2022/07/10 05:57:14;;;;;;;0.10;0.00;;;;;;;13.34;84.46;101103.03;5070609;28;20178;-78
2022/07/10 05:59:39;;;;;;;0.40;0.40;;;;;;;13.37;84.63;101102.41;5071185;28;20286;-78
2022/07/10 06:02:04;;;;;;;2.70;0.93;;;;;;;13.38;84.45;101107.56;5071250;28;20253;-79
2022/07/10 06:04:30;;;;;;;0.00;0.00;;;;;;;13.35;84.05;101102.72;5071104;28;20259;-78
2022/07/10 06:06:55;;;;;;;0.37;0.17;;;;;;;13.33;84.08;101102.22;5071020;28;20175;-78
2022/07/10 06:09:21;;;;;;;1.63;1.53;;;;;;;13.26;83.42;101101.84;5070766;28;20178;-77
2022/07/10 06:11:48;;;;;;;0.00;0.00;;;;;;;13.27;83.66;101105.38;5071343;28;20190;-78
2022/07/10 06:14:13;;;;;;;0.00;0.00;;;;;;;13.31;83.28;101123.69;5071068;28;20177;-78
2022/07/10 06:16:39;;;;;;;0.43;0.20;;;;;;;13.37;83.25;101116.13;5071035;28;20178;-78
2022/07/10 06:19:04;;;;;;;0.50;0.50;;;;;;;13.44;83.04;101108.22;5070764;28;20183;-78
2022/07/10 06:21:29;;;;;;;0.40;0.40;;;;;;;13.47;82.96;101106.81;5070963;28;20175;-78
2022/07/10 06:23:58;;;;;;;0.00;0.00;;;;;;;13.48;83.49;101106.50;5070969;28;20174;-78
2022/07/10 06:26:24;;;;;;;3.30;0.87;;;;;;;13.52;83.37;101109.44;5070744;28;20311;-76
2022/07/10 06:28:49;;;;;;;0.57;0.27;;;;;;;13.62;83.54;101120.16;5070538;28;20269;-78
2022/07/10 06:31:14;;;;;;;4.80;0.73;;;;;;;13.77;83.35;101127.97;5070856;28;20178;-78
2022/07/10 06:33:40;;;;;;;0.20;0.20;;;;;;;13.77;82.78;101118.94;5070812;28;20223;-79
2022/07/10 06:36:05;;;;;;;0.00;0.00;;;;;;;13.93;83.33;101129.19;5070721;28;20174;-78
2022/07/10 06:38:31;;;;;;;0.07;0.07;;;;;;;14.15;82.84;101125.53;5070240;28;20690;-77
2022/07/10 06:40:56;;;;;;;3.23;0.23;;;;;;;14.25;81.61;101119.75;5070867;28;20170;-78
2022/07/10 06:43:22;;;;;;;0.10;0.10;;;;;;;14.33;81.73;101112.66;5070797;28;20262;-78
2022/07/10 06:45:47;;;;;;;0.10;0.10;;;;;;;14.42;81.27;101113.47;5070640;28;20210;-78
2022/07/10 06:48:14;;;;;;;0.27;0.27;;;;;;;14.33;78.48;101114.59;5070158;28;20182;-78
2022/07/10 06:50:39;;;;;;;0.10;0.10;;;;;;;14.28;77.86;101113.59;5070543;28;20582;-78
2022/07/10 06:53:05;;;;;;;0.07;0.07;;;;;;;14.27;78.64;101109.22;5070701;28;20182;-77
2022/07/10 06:55:32;;;;;;;0.00;0.00;;;;;;;14.26;78.55;101113.09;5070854;28;20234;-76
2022/07/10 06:57:58;;;;;;;1.40;0.50;;;;;;;14.34;78.28;101110.72;5069921;28;20526;-78
2022/07/10 07:00:24;;;;;;;2.37;0.30;;;;;;;14.40;78.40;101110.22;5069209;28;20182;-77
2022/07/10 07:02:49;;;;;;;1.00;0.90;;;;;;;14.46;77.83;101108.97;5073115;28;20209;-76
2022/07/10 07:05:15;;;;;;;3.03;0.40;;;;;;;14.44;76.88;101118.66;5074649;28;20209;-77
2022/07/10 07:07:40;;;;;;;0.20;0.20;;;;;;;14.47;77.07;101116.13;5074469;28;20253;-77
2022/07/10 07:10:07;;;;;;;0.97;0.83;;;;;;;14.49;77.35;101105.59;5074262;28;20177;-77
2022/07/10 07:12:33;;;;;;;0.30;0.30;;;;;;;14.64;78.03;101101.56;5074473;28;20170;-77
2022/07/10 07:14:58;;;;;;;0.00;0.00;;;;;;;14.69;77.56;101098.66;5074678;28;20235;-78
2022/07/10 07:17:25;;;;;;;6.43;0.20;;;;;;;14.80;77.11;101110.97;5074130;28;20167;-76
2022/07/10 07:25:20;;;;;;;0.20;0.20;;;;;;;14.73;76.07;101107.88;5074315;28;20563;-76
2022/07/10 07:27:46;;;;;;;5.63;0.50;;;;;;;14.82;75.80;101125.19;5074366;28;20611;-78
2022/07/10 07:30:16;;;;;;;0.63;0.63;;;;;;;14.79;74.39;101109.34;5074288;28;20393;-77
2022/07/10 07:32:45;;;;;;;0.20;0.20;;;;;;;15.00;74.03;101115.00;5072689;28;20197;-76
2022/07/10 07:35:12;;;;;;;0.10;0.10;;;;;;;15.18;73.89;101113.84;5072111;28;20265;-76
2022/07/10 07:37:39;;;;;;;0.57;0.57;;;;;;;15.08;71.75;101107.88;5073518;28;20182;-77
2022/07/10 07:40:06;;;;;;;1.13;1.13;;;;;;;14.95;71.97;101106.91;5073582;28;20620;-77
2022/07/10 07:42:31;;;;;;;0.00;0.00;;;;;;;15.04;72.61;101104.94;5073841;28;20866;-75
2022/07/10 07:44:57;;;;;;;0.97;0.57;;;;;;;15.11;72.37;101108.03;5073701;28;20198;-75
2022/07/10 07:47:22;;;;;;;1.03;0.37;;;;;;;15.00;72.43;101108.69;5073536;28;20239;-76
2022/07/10 07:49:47;;;;;;;13.90;0.93;;;;;;;15.07;73.42;101112.56;5073440;28;20182;-76
2022/07/10 07:52:13;;;;;;;0.30;0.30;;;;;;;15.10;72.89;101111.91;5073708;28;20249;-76
2022/07/10 07:54:39;;;;;;;0.00;0.00;;;;;;;15.19;73.00;101111.91;5073616;28;20539;-77
2022/07/10 07:57:05;;;;;;;0.57;0.53;;;;;;;15.24;71.47;101111.75;5072930;28;20175;-77
2022/07/10 07:59:30;;;;;;;0.00;0.00;;;;;;;15.40;72.35;101096.31;5073507;28;20174;-77
2022/07/10 08:01:55;;;;;;;0.90;0.47;;;;;;;15.61;72.04;101095.63;5073569;28;20171;-75
2022/07/10 08:04:20;;;;;;;2.93;0.87;;;;;;;15.69;71.45;101111.34;5073468;28;20262;-78
2022/07/10 08:06:46;;;;;;;0.00;0.00;;;;;;;15.58;71.29;101113.59;5073360;28;20571;-74
2022/07/10 08:09:11;;;;;;;0.57;0.57;;;;;;;15.59;71.71;101109.72;5073220;28;20266;-76
2022/07/10 08:11:36;;;;;;;2.00;0.17;;;;;;;15.55;71.46;101105.19;5073434;28;20206;-77
2022/07/10 08:14:02;;;;;;;0.00;0.00;;;;;;;15.52;71.93;101109.41;5072805;28;20198;-77
2022/07/10 08:16:27;;;;;;;0.00;0.00;;;;;;;15.55;71.43;101110.69;5073656;28;20167;-74
2022/07/10 08:18:53;;;;;;;0.00;0.00;;;;;;;15.64;72.13;101115.09;5072992;28;20201;-76
2022/07/10 08:21:18;;;;;;;0.00;0.00;;;;;;;15.73;71.49;101112.28;5073242;28;20163;-74
2022/07/10 08:23:43;;;;;;;0.30;0.30;;;;;;;15.74;70.78;101111.94;5073219;28;20171;-76
2022/07/10 08:26:09;;;;;;;0.33;0.33;;;;;;;15.66;69.76;101107.28;5073133;28;20230;-74
2022/07/10 08:28:34;;;;;;;0.10;0.10;;;;;;;15.71;70.60;101109.84;5072759;28;20640;-76
2022/07/10 08:31:01;;;;;;;5.87;0.83;;;;;;;15.76;70.50;101101.41;5073279;28;20705;-78
2022/07/10 08:33:26;;;;;;;0.63;0.63;;;;;;;15.77;70.50;101119.59;5072774;28;20229;-77
2022/07/10 08:35:53;;;;;;;0.73;0.13;;;;;;;15.62;69.97;101097.25;5072712;28;20194;-75
2022/07/10 08:38:18;;;;;;;0.73;0.37;;;;;;;15.41;69.81;101105.38;5072599;28;20163;-77
2022/07/10 08:40:45;;;;;;;0.00;0.00;;;;;;;15.35;70.17;101107.50;5072853;28;20178;-77
2022/07/10 08:43:11;;;;;;;0.67;0.63;;;;;;;15.49;70.08;101101.81;5072939;28;20523;-75
2022/07/10 08:45:36;;;;;;;0.00;0.00;;;;;;;15.91;69.52;101100.06;5073015;28;20205;-77
2022/07/10 08:48:05;;;;;;;0.20;0.20;;;;;;;16.08;66.20;101101.13;5072364;28;20619;-76
2022/07/10 08:50:33;;;;;;;2.17;0.90;;;;;;;16.17;66.30;101107.38;5072628;28;20499;-77
2022/07/10 08:53:08;;;;;;;0.00;0.00;;;;;;;16.14;65.63;101113.56;5071277;28;20171;-75
2022/07/10 08:55:36;;;;;;;0.00;0.00;;;;;;;16.02;65.54;101115.06;5072530;28;20684;-78
2022/07/10 08:58:04;;;;;;;0.00;0.00;;;;;;;16.19;66.45;101105.09;5069660;28;20193;-75
2022/07/10 09:00:30;;;;;;;0.50;0.50;;;;;;;16.58;64.89;101106.66;5072294;28;20261;-76
2022/07/10 09:02:56;;;;;;;0.57;0.27;;;;;;;16.91;63.58;101095.69;5072378;28;20737;-78
2022/07/10 09:05:25;;;;;;;0.30;0.30;;;;;;;16.88;62.90;101104.66;5072226;28;20281;-75
2022/07/10 09:07:53;;;;;;;1.70;0.20;;;;;;;16.66;61.21;101101.06;5070867;28;20265;-77
2022/07/10 09:10:20;;;;;;;0.57;0.57;;;;;;;16.43;60.70;101105.28;5072410;28;20166;-75
2022/07/10 09:13:00;;;;;;;0.53;0.47;;;;;;;16.54;60.78;101089.16;5072213;28;20175;-75
2022/07/10 09:15:29;;;;;;;0.53;0.53;;;;;;;16.78;62.09;101085.72;5072062;28;20182;-73
2022/07/10 09:18:00;;;;;;;0.60;0.57;;;;;;;17.00;62.51;101081.81;5071714;28;20170;-74
2022/07/10 09:20:34;;;;;;;0.63;0.30;;;;;;;16.93;60.80;101090.66;5072133;28;20163;-73
2022/07/10 09:23:18;;;;;;;0.67;0.40;;;;;;;16.73;61.05;101092.28;5072162;28;20219;-73
2022/07/10 09:25:45;;;;;;;0.27;0.27;;;;;;;16.60;60.34;101085.03;5070961;28;20233;-83
2022/07/10 09:28:10;;;;;;;0.87;0.27;;;;;;;16.62;62.09;101088.25;5071494;28;20171;-75
2022/07/10 09:30:38;;;;;;;0.30;0.30;;;;;;;16.49;64.25;101092.09;5071677;28;20171;-77
2022/07/10 09:33:25;;;;;;;0.00;0.00;;;;;;;16.32;65.13;101087.50;5071834;28;20202;-74
2022/07/10 09:38:45;;;;;;;0.00;0.00;;;;;;;16.39;65.64;101084.22;5064120;28;20171;-74
2022/07/10 09:41:21;;;;;;;1.73;0.43;;;;;;;16.49;66.39;101084.66;5070035;28;20182;-73
2022/07/10 09:43:52;;;;;;;0.30;0.30;;;;;;;16.44;64.78;101081.25;5071561;28;20174;-74
2022/07/10 09:46:19;;;;;;;0.83;0.50;;;;;;;16.27;64.52;101090.47;5070134;28;20213;-73
2022/07/10 09:48:45;;;;;;;1.97;0.97;;;;;;;16.18;64.99;101089.69;5071124;28;20167;-74
2022/07/10 09:51:11;;;;;;;0.10;0.10;;;;;;;16.22;65.38;101074.13;5069922;28;20213;-73
2022/07/10 09:53:42;;;;;;;0.33;0.33;;;;;;;16.26;65.51;101077.81;5069925;28;20175;-73
2022/07/10 09:56:11;;;;;;;0.43;0.43;;;;;;;16.39;66.10;101079.53;5071049;28;20528;-75
2022/07/10 09:58:37;;;;;;;0.00;0.00;;;;;;;16.69;65.12;101071.22;5070215;28;20162;-75
2022/07/10 10:01:04;;;;;;;1.60;0.97;;;;;;;17.21;63.50;101077.88;5071222;28;20201;-75
2022/07/10 10:03:37;;;;;;;0.00;0.00;;;;;;;17.31;61.17;101084.09;5071383;28;20533;-74
2022/07/10 10:06:15;;;;;;;0.23;0.23;;;;;;;17.17;61.35;101084.41;5070906;28;20214;-75
2022/07/10 10:09:05;;;;;;;0.00;0.00;;;;;;;17.00;62.21;101082.63;5070312;28;20642;-75
2022/07/10 10:11:32;;;;;;;0.83;0.83;;;;;;;16.79;62.72;101082.66;5070841;28;20493;-73
2022/07/10 10:13:58;;;;;;;0.10;0.10;;;;;;;16.63;62.70;101082.41;5071065;28;20201;-74
2022/07/10 10:16:25;;;;;;;0.00;0.00;;;;;;;16.66;63.67;101080.94;5071086;28;20592;-74
2022/07/10 10:21:36;;;;;;;1.07;0.83;;;;;;;16.84;63.68;101076.13;5070989;28;20188;-73
2022/07/10 10:24:02;;;;;;;1.80;0.70;;;;;;;17.02;63.59;101074.81;5069675;28;20273;-74
2022/07/10 10:26:28;;;;;;;0.83;0.77;;;;;;;17.06;62.60;101075.72;5066958;28;20198;-74
2022/07/10 10:28:58;;;;;;;0.00;0.00;;;;;;;16.97;62.06;101068.69;5068445;28;20182;-73
2022/07/10 10:31:26;;;;;;;0.00;0.00;;;;;;;17.20;63.71;101065.19;5070968;28;20540;-74
2022/07/10 10:33:55;;;;;;;3.27;0.20;;;;;;;17.38;62.59;101054.00;5070749;28;20178;-74
2022/07/10 10:36:45;;;;;;;2.83;0.33;;;;;;;17.47;61.95;101065.72;5070273;28;20182;-74
2022/07/10 10:39:14;;;;;;;1.07;0.83;;;;;;;17.61;61.83;101068.16;5060122;28;20197;-73
2022/07/10 10:41:49;;;;;;;0.60;0.60;;;;;;;17.63;59.37;101066.66;5070536;28;20311;-75
2022/07/10 10:44:17;;;;;;;0.10;0.00;;;;;;;17.44;58.78;101055.38;5070841;28;20178;-73
2022/07/10 10:47:05;;;;;;;8.03;0.57;;;;;;;17.46;59.21;101061.34;5070494;28;20499;-73
2022/07/10 10:50:06;;;;;;;0.20;0.20;;;;;;;17.84;60.81;101064.66;5070418;28;20637;-75
2022/07/10 10:52:31;;;;;;;1.03;0.43;;;;;;;18.28;59.50;101075.91;5028145;28;20191;-75
2022/07/10 10:54:57;;;;;;;15.30;1.00;;;;;;;17.94;57.94;101070.84;5061447;28;20194;-74
2022/07/10 10:57:39;;;;;;;0.57;0.57;;;;;;;17.79;59.47;101064.06;5069472;28;20537;-74
2022/07/10 11:00:08;;;;;;;1.43;0.33;;;;;;;18.11;59.71;101071.44;5070311;28;20175;-74
2022/07/10 11:02:39;;;;;;;0.20;0.20;;;;;;;18.08;57.67;101077.69;5070531;28;20174;-73
2022/07/10 11:05:24;;;;;;;0.57;0.43;;;;;;;17.88;57.99;101066.72;5068940;28;20233;-73
2022/07/10 11:07:54;;;;;;;5.87;0.70;;;;;;;17.80;58.30;101063.75;5068964;28;20281;-74
2022/07/10 11:10:31;;;;;;;1.90;0.67;;;;;;;17.81;57.08;101061.78;5070366;28;20171;-74
2022/07/10 11:13:06;;;;;;;0.63;0.63;;;;;;;17.88;58.50;101067.53;5070465;28;20173;-74
2022/07/10 11:15:33;;;;;;;0.07;0.07;;;;;;;18.10;58.19;101053.25;5069045;28;20277;-76
2022/07/10 11:18:14;;;;;;;0.00;0.00;;;;;;;18.24;57.41;101066.72;5068586;28;20178;-74
2022/07/10 11:20:50;;;;;;;0.00;0.00;;;;;;;18.48;56.92;101059.50;5070434;28;20223;-73
2022/07/10 11:23:34;;;;;;;0.33;0.20;;;;;;;18.74;56.21;101059.94;5070411;28;20254;-73
2022/07/10 11:26:10;;;;;;;0.10;0.10;;;;;;;18.63;55.78;101051.31;5070115;28;20194;-75
2022/07/10 11:28:45;;;;;;;0.07;0.07;;;;;;;18.40;55.71;101058.50;5070074;28;20162;-74
2022/07/10 11:31:10;;;;;;;1.70;0.40;;;;;;;18.59;57.15;101057.88;5070591;28;20173;-75
2022/07/10 11:33:42;;;;;;;0.13;0.13;;;;;;;18.54;57.45;101049.81;5070311;28;20594;-74
2022/07/10 11:36:16;;;;;;;1.30;1.30;;;;;;;18.31;57.65;101043.97;5070273;28;20558;-73
2022/07/10 11:38:43;;;;;;;1.50;0.97;;;;;;;18.28;58.25;101048.25;5069638;28;20206;-73